sensor_id;sensor_type;location;lat;lon;timestamp;P1;durP1;ratioP1;P2;durP2;ratioP2
27977;SDS011;15314;49.248;6.968;2023-01-15T00:00:49;6.28;;;5.97;;
27977;SDS011;15314;49.248;6.968;2023-01-15T00:01:50;6.68;;;6.18;;
27977;SDS011;15314;49.248;6.968;2023-01-15T00:02:51;5.82;;;5.53;;
27977;SDS011;15314;49.248;6.968;2023-01-15T00:03:52;5.93;;;5.72;;
27977;SDS011;15314;49.248;6.968;2023-01-15T00:04:54;6.15;;;5.80;;
27977;SDS011;15314;49.248;6.968;2023-01-15T00:05:55;6.20;;;5.80;;
27977;SDS011;15314;49.248;6.968;2023-01-15T00:07:00;6.45;;;6.00;;
27977;SDS011;15314;49.248;6.968;2023-01-15T00:08:01;5.90;;;5.60;;
27977;SDS011;15314;49.248;6.968;2023-01-15T00:09:02;6.40;;;6.10;;
27977;SDS011;15314;49.248;6.968;2023-01-15T00:10:04;6.13;;;5.75;;
27977;SDS011;15314;49.248;6.968;2023-01-15T00:11:05;6.47;;;5.90;;
27977;SDS011;15314;49.248;6.968;2023-01-15T00:12:06;6.78;;;6.47;;
27977;SDS011;15314;49.248;6.968;2023-01-15T00:13:07;6.93;;;6.38;;
27977;SDS011;15314;49.248;6.968;2023-01-15T00:14:07;6.15;;;5.78;;
27977;SDS011;15314;49.248;6.968;2023-01-15T00:15:08;6.45;;;6.15;;
27977;SDS011;15314;49.248;6.968;2023-01-15T00:16:11;6.07;;;5.88;;
27977;SDS011;15314;49.248;6.968;2023-01-15T00:17:15;6.72;;;6.25;;
27977;SDS011;15314;49.248;6.968;2023-01-15T00:18:16;6.55;;;6.15;;
27977;SDS011;15314;49.248;6.968;2023-01-15T00:19:17;6.35;;;6.05;;
27977;SDS011;15314;49.248;6.968;2023-01-15T00:20:17;6.20;;;5.90;;
27977;SDS011;15314;49.248;6.968;2023-01-15T00:21:19;6.63;;;6.22;;
27977;SDS011;15314;49.248;6.968;2023-01-15T00:22:20;6.20;;;5.90;;
27977;SDS011;15314;49.248;6.968;2023-01-15T00:23:21;6.32;;;5.97;;
27977;SDS011;15314;49.248;6.968;2023-01-15T00:24:40;6.50;;;6.10;;
27977;SDS011;15314;49.248;6.968;2023-01-15T00:25:59;6.10;;;5.70;;
27977;SDS011;15314;49.248;6.968;2023-01-15T00:27:19;5.88;;;5.63;;
27977;SDS011;15314;49.248;6.968;2023-01-15T00:28:52;6.47;;;6.07;;
27977;SDS011;15314;49.248;6.968;2023-01-15T00:29:52;6.15;;;5.75;;
27977;SDS011;15314;49.248;6.968;2023-01-15T00:30:53;6.18;;;5.88;;
27977;SDS011;15314;49.248;6.968;2023-01-15T00:31:55;6.60;;;6.30;;
27977;SDS011;15314;49.248;6.968;2023-01-15T00:32:58;6.28;;;5.95;;
27977;SDS011;15314;49.248;6.968;2023-01-15T00:33:59;6.00;;;5.57;;
27977;SDS011;15314;49.248;6.968;2023-01-15T00:35:01;5.68;;;5.47;;
27977;SDS011;15314;49.248;6.968;2023-01-15T00:36:03;5.55;;;5.20;;
27977;SDS011;15314;49.248;6.968;2023-01-15T00:37:03;6.25;;;5.95;;
27977;SDS011;15314;49.248;6.968;2023-01-15T00:38:04;5.93;;;5.45;;
27977;SDS011;15314;49.248;6.968;2023-01-15T00:39:05;5.55;;;5.30;;
27977;SDS011;15314;49.248;6.968;2023-01-15T00:40:06;6.20;;;5.82;;
27977;SDS011;15314;49.248;6.968;2023-01-15T00:41:07;5.95;;;5.65;;
27977;SDS011;15314;49.248;6.968;2023-01-15T00:42:10;6.00;;;5.65;;
27977;SDS011;15314;49.248;6.968;2023-01-15T00:43:11;5.88;;;5.55;;
27977;SDS011;15314;49.248;6.968;2023-01-15T00:44:12;5.93;;;5.63;;
27977;SDS011;15314;49.248;6.968;2023-01-15T00:45:13;5.63;;;5.32;;
27977;SDS011;15314;49.248;6.968;2023-01-15T00:46:15;6.32;;;5.95;;
27977;SDS011;15314;49.248;6.968;2023-01-15T00:47:15;6.65;;;6.13;;
27977;SDS011;15314;49.248;6.968;2023-01-15T00:48:16;6.38;;;6.07;;
27977;SDS011;15314;49.248;6.968;2023-01-15T00:49:19;6.00;;;5.75;;
27977;SDS011;15314;49.248;6.968;2023-01-15T00:50:21;6.43;;;6.13;;
27977;SDS011;15314;49.248;6.968;2023-01-15T00:51:21;7.05;;;6.45;;
27977;SDS011;15314;49.248;6.968;2023-01-15T00:52:22;6.15;;;5.93;;
27977;SDS011;15314;49.248;6.968;2023-01-15T00:53:22;6.32;;;6.03;;
27977;SDS011;15314;49.248;6.968;2023-01-15T00:54:23;6.45;;;6.07;;
27977;SDS011;15314;49.248;6.968;2023-01-15T00:55:24;6.47;;;6.18;;
27977;SDS011;15314;49.248;6.968;2023-01-15T00:56:25;6.45;;;6.15;;
27977;SDS011;15314;49.248;6.968;2023-01-15T00:57:25;6.07;;;5.78;;
27977;SDS011;15314;49.248;6.968;2023-01-15T00:58:27;6.95;;;6.63;;
27977;SDS011;15314;49.248;6.968;2023-01-15T00:59:27;7.00;;;6.60;;
27977;SDS011;15314;49.248;6.968;2023-01-15T01:00:28;6.50;;;6.20;;
27977;SDS011;15314;49.248;6.968;2023-01-15T01:01:29;6.13;;;5.93;;
27977;SDS011;15314;49.248;6.968;2023-01-15T01:02:30;6.43;;;6.13;;
27977;SDS011;15314;49.248;6.968;2023-01-15T01:03:33;6.45;;;6.15;;
27977;SDS011;15314;49.248;6.968;2023-01-15T01:04:34;6.05;;;5.75;;
27977;SDS011;15314;49.248;6.968;2023-01-15T01:05:35;5.97;;;5.68;;
27977;SDS011;15314;49.248;6.968;2023-01-15T01:06:36;5.85;;;5.65;;
27977;SDS011;15314;49.248;6.968;2023-01-15T01:07:39;5.85;;;5.65;;
27977;SDS011;15314;49.248;6.968;2023-01-15T01:08:40;5.68;;;5.47;;
27977;SDS011;15314;49.248;6.968;2023-01-15T01:09:41;5.60;;;5.40;;
27977;SDS011;15314;49.248;6.968;2023-01-15T01:10:41;5.68;;;5.47;;
27977;SDS011;15314;49.248;6.968;2023-01-15T01:11:43;5.85;;;5.65;;
27977;SDS011;15314;49.248;6.968;2023-01-15T01:12:43;5.95;;;5.63;;
27977;SDS011;15314;49.248;6.968;2023-01-15T01:13:47;6.32;;;5.97;;
27977;SDS011;15314;49.248;6.968;2023-01-15T01:14:48;6.07;;;5.78;;
27977;SDS011;15314;49.248;6.968;2023-01-15T01:15:49;5.78;;;5.57;;
27977;SDS011;15314;49.248;6.968;2023-01-15T01:16:50;5.68;;;5.47;;
27977;SDS011;15314;49.248;6.968;2023-01-15T01:17:51;6.13;;;5.85;;
27977;SDS011;15314;49.248;6.968;2023-01-15T01:18:52;6.13;;;5.93;;
27977;SDS011;15314;49.248;6.968;2023-01-15T01:19:53;6.38;;;6.18;;
27977;SDS011;15314;49.248;6.968;2023-01-15T01:20:54;6.60;;;6.05;;
27977;SDS011;15314;49.248;6.968;2023-01-15T01:21:55;6.30;;;6.10;;
27977;SDS011;15314;49.248;6.968;2023-01-15T01:22:55;6.13;;;5.93;;
27977;SDS011;15314;49.248;6.968;2023-01-15T01:23:57;6.90;;;6.60;;
27977;SDS011;15314;49.248;6.968;2023-01-15T01:24:58;6.18;;;5.97;;
27977;SDS011;15314;49.248;6.968;2023-01-15T01:25:58;6.63;;;6.43;;
27977;SDS011;15314;49.248;6.968;2023-01-15T01:26:59;6.35;;;6.15;;
27977;SDS011;15314;49.248;6.968;2023-01-15T01:28:00;6.50;;;6.20;;
27977;SDS011;15314;49.248;6.968;2023-01-15T01:29:00;6.70;;;6.40;;
27977;SDS011;15314;49.248;6.968;2023-01-15T01:30:02;6.22;;;5.85;;
27977;SDS011;15314;49.248;6.968;2023-01-15T01:31:04;6.80;;;6.40;;
27977;SDS011;15314;49.248;6.968;2023-01-15T01:32:05;6.47;;;6.18;;
27977;SDS011;15314;49.248;6.968;2023-01-15T01:33:06;6.43;;;6.20;;
27977;SDS011;15314;49.248;6.968;2023-01-15T01:34:07;6.68;;;6.38;;
27977;SDS011;15314;49.248;6.968;2023-01-15T01:35:09;6.57;;;6.30;;
27977;SDS011;15314;49.248;6.968;2023-01-15T01:36:10;6.75;;;6.45;;
27977;SDS011;15314;49.248;6.968;2023-01-15T01:37:11;6.70;;;6.50;;
27977;SDS011;15314;49.248;6.968;2023-01-15T01:38:13;7.57;;;7.18;;
27977;SDS011;15314;49.248;6.968;2023-01-15T01:39:15;8.13;;;7.63;;
27977;SDS011;15314;49.248;6.968;2023-01-15T01:40:17;7.95;;;7.55;;
27977;SDS011;15314;49.248;6.968;2023-01-15T01:41:18;7.63;;;7.22;;
27977;SDS011;15314;49.248;6.968;2023-01-15T01:42:19;8.38;;;7.88;;
27977;SDS011;15314;49.248;6.968;2023-01-15T01:43:21;7.68;;;7.35;;
27977;SDS011;15314;49.248;6.968;2023-01-15T01:45:33;8.52;;;8.02;;
27977;SDS011;15314;49.248;6.968;2023-01-15T01:46:34;7.95;;;7.35;;
27977;SDS011;15314;49.248;6.968;2023-01-15T01:47:35;7.93;;;7.53;;
27977;SDS011;15314;49.248;6.968;2023-01-15T01:48:36;8.60;;;8.10;;
27977;SDS011;15314;49.248;6.968;2023-01-15T01:49:38;8.02;;;7.63;;
27977;SDS011;15314;49.248;6.968;2023-01-15T01:50:40;7.90;;;7.50;;
27977;SDS011;15314;49.248;6.968;2023-01-15T01:51:42;8.02;;;7.63;;
27977;SDS011;15314;49.248;6.968;2023-01-15T01:52:50;7.97;;;7.57;;
27977;SDS011;15314;49.248;6.968;2023-01-15T01:53:55;8.35;;;7.95;;
27977;SDS011;15314;49.248;6.968;2023-01-15T01:54:57;8.30;;;7.60;;
27977;SDS011;15314;49.248;6.968;2023-01-15T01:55:59;7.57;;;7.28;;
27977;SDS011;15314;49.248;6.968;2023-01-15T01:57:01;7.65;;;7.25;;
27977;SDS011;15314;49.248;6.968;2023-01-15T01:58:08;7.80;;;7.40;;
27977;SDS011;15314;49.248;6.968;2023-01-15T01:59:11;7.30;;;6.90;;
27977;SDS011;15314;49.248;6.968;2023-01-15T02:00:12;8.13;;;7.72;;
27977;SDS011;15314;49.248;6.968;2023-01-15T02:01:14;8.80;;;8.07;;
27977;SDS011;15314;49.248;6.968;2023-01-15T02:02:17;8.23;;;7.72;;
27977;SDS011;15314;49.248;6.968;2023-01-15T02:03:22;8.65;;;8.15;;
27977;SDS011;15314;49.248;6.968;2023-01-15T02:04:29;8.75;;;8.15;;
27977;SDS011;15314;49.248;6.968;2023-01-15T02:05:31;8.40;;;7.80;;
27977;SDS011;15314;49.248;6.968;2023-01-15T02:06:37;8.60;;;8.10;;
27977;SDS011;15314;49.248;6.968;2023-01-15T02:07:40;8.40;;;8.00;;
27977;SDS011;15314;49.248;6.968;2023-01-15T02:08:40;8.20;;;7.65;;
27977;SDS011;15314;49.248;6.968;2023-01-15T02:09:42;7.70;;;7.30;;
27977;SDS011;15314;49.248;6.968;2023-01-15T02:10:44;7.72;;;7.35;;
27977;SDS011;15314;49.248;6.968;2023-01-15T02:11:50;7.55;;;7.15;;
27977;SDS011;15314;49.248;6.968;2023-01-15T02:15:26;7.32;;;6.85;;
27977;SDS011;15314;49.248;6.968;2023-01-15T02:17:48;7.65;;;7.28;;
27977;SDS011;15314;49.248;6.968;2023-01-15T02:22:06;6.80;;;6.40;;
27977;SDS011;15314;49.248;6.968;2023-01-15T02:27:29;7.90;;;7.25;;
27977;SDS011;15314;49.248;6.968;2023-01-15T02:28:37;7.32;;;6.93;;
27977;SDS011;15314;49.248;6.968;2023-01-15T02:32:33;7.25;;;6.70;;
27977;SDS011;15314;49.248;6.968;2023-01-15T02:33:47;7.00;;;6.63;;
27977;SDS011;15314;49.248;6.968;2023-01-15T02:34:54;7.20;;;6.90;;
27977;SDS011;15314;49.248;6.968;2023-01-15T02:35:58;6.47;;;6.18;;
27977;SDS011;15314;49.248;6.968;2023-01-15T02:37:07;6.38;;;6.07;;
27977;SDS011;15314;49.248;6.968;2023-01-15T02:38:14;7.05;;;6.65;;
27977;SDS011;15314;49.248;6.968;2023-01-15T02:39:17;6.78;;;6.47;;
27977;SDS011;15314;49.248;6.968;2023-01-15T02:40:23;5.97;;;5.78;;
27977;SDS011;15314;49.248;6.968;2023-01-15T02:41:31;6.70;;;6.40;;
27977;SDS011;15314;49.248;6.968;2023-01-15T02:42:37;7.07;;;6.78;;
27977;SDS011;15314;49.248;6.968;2023-01-15T02:43:40;6.00;;;5.80;;
27977;SDS011;15314;49.248;6.968;2023-01-15T02:44:43;6.53;;;6.13;;
27977;SDS011;15314;49.248;6.968;2023-01-15T02:45:48;6.15;;;5.95;;
27977;SDS011;15314;49.248;6.968;2023-01-15T02:46:51;6.82;;;6.50;;
27977;SDS011;15314;49.248;6.968;2023-01-15T02:47:55;6.57;;;6.28;;
27977;SDS011;15314;49.248;6.968;2023-01-15T02:49:01;6.45;;;6.05;;
27977;SDS011;15314;49.248;6.968;2023-01-15T02:50:10;6.65;;;6.40;;
27977;SDS011;15314;49.248;6.968;2023-01-15T02:51:15;6.53;;;6.32;;
27977;SDS011;15314;49.248;6.968;2023-01-15T02:52:23;6.82;;;6.53;;
27977;SDS011;15314;49.248;6.968;2023-01-15T02:53:28;6.72;;;6.32;;
27977;SDS011;15314;49.248;6.968;2023-01-15T02:54:42;6.90;;;6.60;;
27977;SDS011;15314;49.248;6.968;2023-01-15T02:55:58;6.75;;;6.45;;
27977;SDS011;15314;49.248;6.968;2023-01-15T02:57:03;6.88;;;6.57;;
27977;SDS011;15314;49.248;6.968;2023-01-15T02:58:05;6.97;;;6.68;;
27977;SDS011;15314;49.248;6.968;2023-01-15T02:59:14;6.90;;;6.60;;
27977;SDS011;15314;49.248;6.968;2023-01-15T03:00:21;6.63;;;6.38;;
27977;SDS011;15314;49.248;6.968;2023-01-15T03:01:26;6.90;;;6.70;;
27977;SDS011;15314;49.248;6.968;2023-01-15T03:02:33;6.97;;;6.78;;
27977;SDS011;15314;49.248;6.968;2023-01-15T03:03:46;6.78;;;6.55;;
27977;SDS011;15314;49.248;6.968;2023-01-15T03:04:55;6.68;;;6.47;;
27977;SDS011;15314;49.248;6.968;2023-01-15T03:09:49;6.80;;;6.50;;
27977;SDS011;15314;49.248;6.968;2023-01-15T03:13:40;6.78;;;6.57;;
27977;SDS011;15314;49.248;6.968;2023-01-15T03:14:59;6.75;;;6.53;;
27977;SDS011;15314;49.248;6.968;2023-01-15T03:16:15;6.88;;;6.57;;
27977;SDS011;15314;49.248;6.968;2023-01-15T03:17:38;7.13;;;6.70;;
27977;SDS011;15314;49.248;6.968;2023-01-15T03:20:12;6.90;;;6.70;;
27977;SDS011;15314;49.248;6.968;2023-01-15T03:21:20;7.07;;;6.78;;
27977;SDS011;15314;49.248;6.968;2023-01-15T03:22:30;7.38;;;7.07;;
27977;SDS011;15314;49.248;6.968;2023-01-15T03:23:34;7.03;;;6.78;;
27977;SDS011;15314;49.248;6.968;2023-01-15T03:24:48;6.82;;;6.53;;
27977;SDS011;15314;49.248;6.968;2023-01-15T03:25:53;6.82;;;6.53;;
27977;SDS011;15314;49.248;6.968;2023-01-15T03:26:54;7.28;;;6.97;;
27977;SDS011;15314;49.248;6.968;2023-01-15T03:27:55;7.15;;;6.85;;
27977;SDS011;15314;49.248;6.968;2023-01-15T03:29:01;7.30;;;7.00;;
27977;SDS011;15314;49.248;6.968;2023-01-15T03:30:06;7.13;;;6.82;;
27977;SDS011;15314;49.248;6.968;2023-01-15T03:31:12;7.32;;;7.03;;
27977;SDS011;15314;49.248;6.968;2023-01-15T03:32:14;7.18;;;6.88;;
27977;SDS011;15314;49.248;6.968;2023-01-15T03:33:17;7.50;;;7.10;;
27977;SDS011;15314;49.248;6.968;2023-01-15T03:34:18;7.50;;;7.20;;
27977;SDS011;15314;49.248;6.968;2023-01-15T03:35:41;7.43;;;7.13;;
27977;SDS011;15314;49.248;6.968;2023-01-15T03:36:46;8.02;;;7.53;;
27977;SDS011;15314;49.248;6.968;2023-01-15T03:37:47;7.78;;;7.38;;
27977;SDS011;15314;49.248;6.968;2023-01-15T03:38:48;7.85;;;7.55;;
27977;SDS011;15314;49.248;6.968;2023-01-15T03:39:50;7.50;;;7.20;;
27977;SDS011;15314;49.248;6.968;2023-01-15T03:40:54;7.40;;;7.00;;
27977;SDS011;15314;49.248;6.968;2023-01-15T03:43:28;8.57;;;8.07;;
27977;SDS011;15314;49.248;6.968;2023-01-15T03:44:44;8.13;;;7.68;;
27977;SDS011;15314;49.248;6.968;2023-01-15T03:46:20;7.97;;;7.57;;
27977;SDS011;15314;49.248;6.968;2023-01-15T03:47:40;7.55;;;7.15;;
27977;SDS011;15314;49.248;6.968;2023-01-15T03:49:18;7.32;;;6.95;;
27977;SDS011;15314;49.248;6.968;2023-01-15T03:50:40;8.02;;;7.63;;
27977;SDS011;15314;49.248;6.968;2023-01-15T03:53:09;7.78;;;7.47;;
27977;SDS011;15314;49.248;6.968;2023-01-15T03:54:15;7.88;;;7.47;;
27977;SDS011;15314;49.248;6.968;2023-01-15T03:55:38;7.57;;;7.28;;
27977;SDS011;15314;49.248;6.968;2023-01-15T03:56:50;8.00;;;7.70;;
27977;SDS011;15314;49.248;6.968;2023-01-15T03:58:17;8.02;;;7.53;;
27977;SDS011;15314;49.248;6.968;2023-01-15T03:59:31;7.63;;;7.30;;
27977;SDS011;15314;49.248;6.968;2023-01-15T04:00:41;7.53;;;7.22;;
27977;SDS011;15314;49.248;6.968;2023-01-15T04:01:56;7.85;;;7.55;;
27977;SDS011;15314;49.248;6.968;2023-01-15T04:02:58;7.40;;;7.10;;
27977;SDS011;15314;49.248;6.968;2023-01-15T04:04:02;7.53;;;7.25;;
27977;SDS011;15314;49.248;6.968;2023-01-15T04:05:05;7.32;;;7.03;;
27977;SDS011;15314;49.248;6.968;2023-01-15T04:06:07;7.18;;;6.88;;
27977;SDS011;15314;49.248;6.968;2023-01-15T04:07:09;7.45;;;7.15;;
27977;SDS011;15314;49.248;6.968;2023-01-15T04:08:10;7.63;;;7.32;;
27977;SDS011;15314;49.248;6.968;2023-01-15T04:09:12;7.45;;;7.15;;
27977;SDS011;15314;49.248;6.968;2023-01-15T04:10:14;7.32;;;6.82;;
27977;SDS011;15314;49.248;6.968;2023-01-15T04:11:20;7.28;;;6.97;;
27977;SDS011;15314;49.248;6.968;2023-01-15T04:12:23;7.68;;;7.20;;
27977;SDS011;15314;49.248;6.968;2023-01-15T04:13:27;7.40;;;7.10;;
27977;SDS011;15314;49.248;6.968;2023-01-15T04:14:28;7.45;;;7.05;;
27977;SDS011;15314;49.248;6.968;2023-01-15T04:15:30;7.40;;;7.10;;
27977;SDS011;15314;49.248;6.968;2023-01-15T04:16:31;7.60;;;7.28;;
27977;SDS011;15314;49.248;6.968;2023-01-15T04:17:33;7.55;;;7.25;;
27977;SDS011;15314;49.248;6.968;2023-01-15T04:18:34;7.60;;;7.30;;
27977;SDS011;15314;49.248;6.968;2023-01-15T04:19:38;7.28;;;6.97;;
27977;SDS011;15314;49.248;6.968;2023-01-15T04:20:39;7.25;;;6.93;;
27977;SDS011;15314;49.248;6.968;2023-01-15T04:21:40;7.20;;;6.88;;
27977;SDS011;15314;49.248;6.968;2023-01-15T04:22:42;7.20;;;6.90;;
27977;SDS011;15314;49.248;6.968;2023-01-15T04:23:42;7.13;;;6.82;;
27977;SDS011;15314;49.248;6.968;2023-01-15T04:24:43;7.47;;;6.97;;
27977;SDS011;15314;49.248;6.968;2023-01-15T04:25:44;7.20;;;7.00;;
27977;SDS011;15314;49.248;6.968;2023-01-15T04:26:45;7.25;;;7.00;;
27977;SDS011;15314;49.248;6.968;2023-01-15T04:27:45;7.53;;;7.07;;
27977;SDS011;15314;49.248;6.968;2023-01-15T04:28:46;6.85;;;6.55;;
27977;SDS011;15314;49.248;6.968;2023-01-15T04:29:47;7.20;;;6.90;;
27977;SDS011;15314;49.248;6.968;2023-01-15T04:30:48;7.45;;;7.00;;
27977;SDS011;15314;49.248;6.968;2023-01-15T04:31:49;6.45;;;6.25;;
27977;SDS011;15314;49.248;6.968;2023-01-15T04:32:56;7.30;;;7.00;;
27977;SDS011;15314;49.248;6.968;2023-01-15T04:33:58;7.43;;;7.10;;
27977;SDS011;15314;49.248;6.968;2023-01-15T04:34:59;6.95;;;6.70;;
27977;SDS011;15314;49.248;6.968;2023-01-15T04:36:01;7.70;;;6.97;;
27977;SDS011;15314;49.248;6.968;2023-01-15T04:37:03;7.07;;;6.88;;
27977;SDS011;15314;49.248;6.968;2023-01-15T04:38:04;6.95;;;6.72;;
27977;SDS011;15314;49.248;6.968;2023-01-15T04:39:05;7.22;;;6.82;;
27977;SDS011;15314;49.248;6.968;2023-01-15T04:40:06;6.95;;;6.65;;
27977;SDS011;15314;49.248;6.968;2023-01-15T04:41:08;6.95;;;6.63;;
27977;SDS011;15314;49.248;6.968;2023-01-15T04:42:28;6.90;;;6.60;;
27977;SDS011;15314;49.248;6.968;2023-01-15T04:43:48;7.38;;;7.05;;
27977;SDS011;15314;49.248;6.968;2023-01-15T04:45:07;7.28;;;6.97;;
27977;SDS011;15314;49.248;6.968;2023-01-15T04:46:08;7.50;;;7.10;;
27977;SDS011;15314;49.248;6.968;2023-01-15T04:47:09;7.63;;;7.25;;
27977;SDS011;15314;49.248;6.968;2023-01-15T04:48:10;7.78;;;7.28;;
27977;SDS011;15314;49.248;6.968;2023-01-15T04:49:13;7.60;;;7.20;;
27977;SDS011;15314;49.248;6.968;2023-01-15T04:50:16;7.40;;;6.93;;
27977;SDS011;15314;49.248;6.968;2023-01-15T04:51:16;7.93;;;7.32;;
27977;SDS011;15314;49.248;6.968;2023-01-15T04:52:17;7.28;;;6.97;;
27977;SDS011;15314;49.248;6.968;2023-01-15T04:53:18;7.70;;;7.40;;
27977;SDS011;15314;49.248;6.968;2023-01-15T04:54:19;7.80;;;7.50;;
27977;SDS011;15314;49.248;6.968;2023-01-15T04:55:22;7.68;;;7.38;;
27977;SDS011;15314;49.248;6.968;2023-01-15T04:56:23;7.40;;;7.00;;
27977;SDS011;15314;49.248;6.968;2023-01-15T04:57:24;7.30;;;7.00;;
27977;SDS011;15314;49.248;6.968;2023-01-15T04:58:24;7.57;;;7.28;;
27977;SDS011;15314;49.248;6.968;2023-01-15T04:59:25;7.07;;;6.78;;
27977;SDS011;15314;49.248;6.968;2023-01-15T05:00:26;6.97;;;6.72;;
27977;SDS011;15314;49.248;6.968;2023-01-15T05:01:27;6.90;;;6.70;;
27977;SDS011;15314;49.248;6.968;2023-01-15T05:02:28;7.22;;;6.93;;
27977;SDS011;15314;49.248;6.968;2023-01-15T05:03:29;7.38;;;7.07;;
27977;SDS011;15314;49.248;6.968;2023-01-15T05:04:31;7.35;;;7.05;;
27977;SDS011;15314;49.248;6.968;2023-01-15T05:05:32;7.38;;;7.07;;
27977;SDS011;15314;49.248;6.968;2023-01-15T05:06:33;7.22;;;6.85;;
27977;SDS011;15314;49.248;6.968;2023-01-15T05:07:34;7.85;;;7.45;;
27977;SDS011;15314;49.248;6.968;2023-01-15T05:08:35;7.75;;;7.35;;
27977;SDS011;15314;49.248;6.968;2023-01-15T05:09:35;7.57;;;7.22;;
27977;SDS011;15314;49.248;6.968;2023-01-15T05:10:36;7.15;;;6.85;;
27977;SDS011;15314;49.248;6.968;2023-01-15T05:11:37;7.47;;;7.20;;
27977;SDS011;15314;49.248;6.968;2023-01-15T05:12:39;7.50;;;7.20;;
27977;SDS011;15314;49.248;6.968;2023-01-15T05:13:40;7.40;;;7.10;;
27977;SDS011;15314;49.248;6.968;2023-01-15T05:14:42;6.85;;;6.55;;
27977;SDS011;15314;49.248;6.968;2023-01-15T05:15:42;7.28;;;6.88;;
27977;SDS011;15314;49.248;6.968;2023-01-15T05:16:46;7.50;;;7.20;;
27977;SDS011;15314;49.248;6.968;2023-01-15T05:17:47;7.68;;;7.32;;
27977;SDS011;15314;49.248;6.968;2023-01-15T05:18:47;7.65;;;7.35;;
27977;SDS011;15314;49.248;6.968;2023-01-15T05:19:48;7.65;;;7.35;;
27977;SDS011;15314;49.248;6.968;2023-01-15T05:20:49;7.03;;;6.75;;
27977;SDS011;15314;49.248;6.968;2023-01-15T05:21:51;7.43;;;7.13;;
27977;SDS011;15314;49.248;6.968;2023-01-15T05:22:52;7.70;;;7.40;;
27977;SDS011;15314;49.248;6.968;2023-01-15T05:23:54;7.38;;;7.07;;
27977;SDS011;15314;49.248;6.968;2023-01-15T05:24:56;7.70;;;7.40;;
27977;SDS011;15314;49.248;6.968;2023-01-15T05:25:56;7.50;;;7.20;;
27977;SDS011;15314;49.248;6.968;2023-01-15T05:27:00;7.50;;;7.20;;
27977;SDS011;15314;49.248;6.968;2023-01-15T05:28:01;7.40;;;7.10;;
27977;SDS011;15314;49.248;6.968;2023-01-15T05:29:02;7.43;;;7.13;;
27977;SDS011;15314;49.248;6.968;2023-01-15T05:30:04;7.90;;;7.60;;
27977;SDS011;15314;49.248;6.968;2023-01-15T05:31:06;7.32;;;7.07;;
27977;SDS011;15314;49.248;6.968;2023-01-15T05:32:17;7.47;;;7.18;;
27977;SDS011;15314;49.248;6.968;2023-01-15T05:33:18;7.20;;;6.97;;
27977;SDS011;15314;49.248;6.968;2023-01-15T05:34:18;6.93;;;6.72;;
27977;SDS011;15314;49.248;6.968;2023-01-15T05:35:19;7.55;;;7.25;;
27977;SDS011;15314;49.248;6.968;2023-01-15T05:36:22;7.70;;;7.40;;
27977;SDS011;15314;49.248;6.968;2023-01-15T05:37:28;7.68;;;7.38;;
27977;SDS011;15314;49.248;6.968;2023-01-15T05:38:29;7.47;;;7.18;;
27977;SDS011;15314;49.248;6.968;2023-01-15T05:39:30;7.50;;;7.20;;
27977;SDS011;15314;49.248;6.968;2023-01-15T05:40:31;7.97;;;7.50;;
27977;SDS011;15314;49.248;6.968;2023-01-15T05:41:32;7.50;;;7.15;;
27977;SDS011;15314;49.248;6.968;2023-01-15T05:42:48;7.55;;;7.25;;
27977;SDS011;15314;49.248;6.968;2023-01-15T05:43:48;7.38;;;7.00;;
27977;SDS011;15314;49.248;6.968;2023-01-15T05:44:49;7.75;;;7.45;;
27977;SDS011;15314;49.248;6.968;2023-01-15T05:45:49;7.47;;;7.18;;
27977;SDS011;15314;49.248;6.968;2023-01-15T05:46:51;7.30;;;7.10;;
27977;SDS011;15314;49.248;6.968;2023-01-15T05:47:53;7.78;;;7.47;;
27977;SDS011;15314;49.248;6.968;2023-01-15T05:48:58;6.20;;;6.00;;
27977;SDS011;15314;49.248;6.968;2023-01-15T05:50:00;6.65;;;6.35;;
27977;SDS011;15314;49.248;6.968;2023-01-15T05:51:01;6.53;;;6.32;;
27977;SDS011;15314;49.248;6.968;2023-01-15T05:52:02;6.65;;;6.43;;
27977;SDS011;15314;49.248;6.968;2023-01-15T05:53:04;6.70;;;6.50;;
27977;SDS011;15314;49.248;6.968;2023-01-15T05:54:06;6.53;;;6.32;;
27977;SDS011;15314;49.248;6.968;2023-01-15T05:55:10;6.90;;;6.60;;
27977;SDS011;15314;49.248;6.968;2023-01-15T05:56:11;6.63;;;6.40;;
27977;SDS011;15314;49.248;6.968;2023-01-15T05:57:12;6.20;;;6.00;;
27977;SDS011;15314;49.248;6.968;2023-01-15T05:58:13;6.13;;;5.93;;
27977;SDS011;15314;49.248;6.968;2023-01-15T05:59:14;6.20;;;6.00;;
27977;SDS011;15314;49.248;6.968;2023-01-15T06:00:16;6.68;;;6.38;;
27977;SDS011;15314;49.248;6.968;2023-01-15T06:01:18;6.30;;;6.10;;
27977;SDS011;15314;49.248;6.968;2023-01-15T06:02:19;6.35;;;6.05;;
27977;SDS011;15314;49.248;6.968;2023-01-15T06:03:23;6.47;;;6.18;;
27977;SDS011;15314;49.248;6.968;2023-01-15T06:04:26;6.35;;;6.10;;
27977;SDS011;15314;49.248;6.968;2023-01-15T06:05:27;6.10;;;5.90;;
27977;SDS011;15314;49.248;6.968;2023-01-15T06:06:28;6.40;;;6.10;;
27977;SDS011;15314;49.248;6.968;2023-01-15T06:07:29;5.95;;;5.75;;
27977;SDS011;15314;49.248;6.968;2023-01-15T06:08:29;6.10;;;5.80;;
27977;SDS011;15314;49.248;6.968;2023-01-15T06:09:30;6.13;;;5.93;;
27977;SDS011;15314;49.248;6.968;2023-01-15T06:10:31;6.50;;;6.20;;
27977;SDS011;15314;49.248;6.968;2023-01-15T06:11:31;6.47;;;6.18;;
27977;SDS011;15314;49.248;6.968;2023-01-15T06:12:34;6.20;;;6.00;;
27977;SDS011;15314;49.248;6.968;2023-01-15T06:13:34;6.32;;;6.13;;
27977;SDS011;15314;49.248;6.968;2023-01-15T06:14:35;5.68;;;5.47;;
27977;SDS011;15314;49.248;6.968;2023-01-15T06:15:36;6.32;;;6.13;;
27977;SDS011;15314;49.248;6.968;2023-01-15T06:16:37;6.28;;;6.07;;
27977;SDS011;15314;49.248;6.968;2023-01-15T06:17:38;5.85;;;5.65;;
27977;SDS011;15314;49.248;6.968;2023-01-15T06:18:39;6.50;;;6.30;;
27977;SDS011;15314;49.248;6.968;2023-01-15T06:19:40;6.00;;;5.70;;
27977;SDS011;15314;49.248;6.968;2023-01-15T06:20:41;6.25;;;6.03;;
27977;SDS011;15314;49.248;6.968;2023-01-15T06:21:41;5.70;;;5.50;;
27977;SDS011;15314;49.248;6.968;2023-01-15T06:22:42;5.65;;;5.45;;
27977;SDS011;15314;49.248;6.968;2023-01-15T06:23:43;6.40;;;6.20;;
27977;SDS011;15314;49.248;6.968;2023-01-15T06:24:44;6.53;;;6.22;;
27977;SDS011;15314;49.248;6.968;2023-01-15T06:25:45;6.10;;;5.90;;
27977;SDS011;15314;49.248;6.968;2023-01-15T06:26:45;5.95;;;5.75;;
27977;SDS011;15314;49.248;6.968;2023-01-15T06:27:46;6.25;;;6.05;;
27977;SDS011;15314;49.248;6.968;2023-01-15T06:28:48;5.82;;;5.63;;
27977;SDS011;15314;49.248;6.968;2023-01-15T06:29:49;5.68;;;5.47;;
27977;SDS011;15314;49.248;6.968;2023-01-15T06:30:50;6.20;;;6.00;;
27977;SDS011;15314;49.248;6.968;2023-01-15T06:31:50;5.90;;;5.70;;
27977;SDS011;15314;49.248;6.968;2023-01-15T06:32:51;5.93;;;5.72;;
27977;SDS011;15314;49.248;6.968;2023-01-15T06:33:51;5.68;;;5.47;;
27977;SDS011;15314;49.248;6.968;2023-01-15T06:34:52;6.03;;;5.82;;
27977;SDS011;15314;49.248;6.968;2023-01-15T06:35:53;5.68;;;5.47;;
27977;SDS011;15314;49.248;6.968;2023-01-15T06:36:54;6.00;;;5.80;;
27977;SDS011;15314;49.248;6.968;2023-01-15T06:37:54;6.40;;;6.10;;
27977;SDS011;15314;49.248;6.968;2023-01-15T06:38:55;5.85;;;5.65;;
27977;SDS011;15314;49.248;6.968;2023-01-15T06:39:57;5.82;;;5.63;;
27977;SDS011;15314;49.248;6.968;2023-01-15T06:40:58;6.50;;;6.20;;
27977;SDS011;15314;49.248;6.968;2023-01-15T06:42:03;6.60;;;6.20;;
27977;SDS011;15314;49.248;6.968;2023-01-15T06:43:22;5.80;;;5.60;;
27977;SDS011;15314;49.248;6.968;2023-01-15T06:44:42;6.05;;;5.80;;
27977;SDS011;15314;49.248;6.968;2023-01-15T06:46:01;6.05;;;5.75;;
27977;SDS011;15314;49.248;6.968;2023-01-15T06:47:21;6.00;;;5.78;;
27977;SDS011;15314;49.248;6.968;2023-01-15T06:48:25;6.40;;;6.00;;
27977;SDS011;15314;49.248;6.968;2023-01-15T06:49:26;6.50;;;6.20;;
27977;SDS011;15314;49.248;6.968;2023-01-15T06:50:28;6.22;;;6.03;;